N4951N KDVT-KSEZ
Flight info
| Callsign | N4951N |
|---|---|
| Flight time | 0h 44m |
| Altitude | 10000 |
| Route | DVT3 PXR QUAKY SNOBL CARTL |
| Aircraft | C182/L-SDGRY/S |
Departure
| Time | 2026-05-03 21:59 |
|---|---|
| Airport | Phoenix Deer Valley Airport (KDVT) |
Arrival
| Time | 2026-05-03 22:43 |
|---|---|
| Airport | Sedona Airport (KSEZ) |
| Time | Latitude | Longitude | Altitude | Speed | Heading |
|---|---|---|---|---|---|
| 2026-05-03 21:49 | 33.68691 | -112.07400 | 1546 ft | 0 kts | 86° |
| 2026-05-03 21:54 | 33.68688 | -112.07398 | 1555 ft | 2 kts | 213° |
| 2026-05-03 21:54 | 33.68691 | -112.07418 | 1553 ft | 0 kts | 310° |
| 2026-05-03 21:58 | 33.68722 | -112.07449 | 1557 ft | 14 kts | 334° |
| 2026-05-03 21:58 | 33.68802 | -112.07470 | 1561 ft | 9 kts | 307° |
| 2026-05-03 21:58 | 33.68806 | -112.07540 | 1561 ft | 11 kts | 262° |
| 2026-05-03 21:58 | 33.68788 | -112.07856 | 1542 ft | 65 kts | 268° |
| 2026-05-03 21:59 | 33.68727 | -112.08533 | 1661 ft | 91 kts | 261° |
| 2026-05-03 21:59 | 33.68696 | -112.09334 | 1873 ft | 101 kts | 265° |
| 2026-05-03 21:59 | 33.68659 | -112.10160 | 2190 ft | 97 kts | 263° |
| 2026-05-03 21:59 | 33.68838 | -112.10901 | 2571 ft | 99 kts | 303° |
| 2026-05-03 22:00 | 33.69536 | -112.11167 | 2792 ft | 117 kts | 12° |
| 2026-05-03 22:00 | 33.70212 | -112.10700 | 3049 ft | 110 kts | 57° |
| 2026-05-03 22:00 | 33.70607 | -112.09941 | 3211 ft | 111 kts | 71° |
| 2026-05-03 22:00 | 33.70904 | -112.09121 | 3441 ft | 105 kts | 80° |
| 2026-05-03 22:01 | 33.71223 | -112.08321 | 3632 ft | 106 kts | 73° |
| 2026-05-03 22:01 | 33.71528 | -112.07489 | 3828 ft | 108 kts | 73° |
| 2026-05-03 22:01 | 33.71839 | -112.06685 | 4079 ft | 103 kts | 75° |
| 2026-05-03 22:01 | 33.72122 | -112.05876 | 4269 ft | 111 kts | 75° |
| 2026-05-03 22:02 | 33.72424 | -112.05037 | 4518 ft | 104 kts | 74° |
| 2026-05-03 22:02 | 33.72727 | -112.04247 | 4722 ft | 107 kts | 71° |
| 2026-05-03 22:02 | 33.73064 | -112.03460 | 4913 ft | 109 kts | 60° |
| 2026-05-03 22:02 | 33.73708 | -112.02933 | 5084 ft | 115 kts | 26° |
| 2026-05-03 22:03 | 33.74451 | -112.02567 | 5278 ft | 116 kts | 27° |
| 2026-05-03 22:03 | 33.75170 | -112.02125 | 5498 ft | 115 kts | 27° |
| 2026-05-03 22:03 | 33.75919 | -112.01841 | 5745 ft | 112 kts | 13° |
| 2026-05-03 22:03 | 33.76693 | -112.01710 | 5919 ft | 114 kts | 6° |
| 2026-05-03 22:04 | 33.77475 | -112.01874 | 6052 ft | 119 kts | 356° |
| 2026-05-03 22:04 | 33.78310 | -112.01784 | 6227 ft | 122 kts | 4° |
| 2026-05-03 22:04 | 33.79154 | -112.01678 | 6388 ft | 121 kts | 5° |
| 2026-05-03 22:04 | 33.79995 | -112.01578 | 6552 ft | 122 kts | 5° |
| 2026-05-03 22:05 | 33.80844 | -112.01477 | 6712 ft | 123 kts | 5° |
| 2026-05-03 22:05 | 33.81689 | -112.01370 | 6873 ft | 122 kts | 5° |
| 2026-05-03 22:05 | 33.82525 | -112.01272 | 7033 ft | 120 kts | 5° |
| 2026-05-03 22:05 | 33.83357 | -112.01181 | 7188 ft | 120 kts | 5° |
| 2026-05-03 22:06 | 33.84174 | -112.01090 | 7346 ft | 115 kts | 5° |
| 2026-05-03 22:06 | 33.84967 | -112.01002 | 7502 ft | 113 kts | 5° |
| 2026-05-03 22:06 | 33.85739 | -112.00927 | 7655 ft | 110 kts | 4° |
| 2026-05-03 22:06 | 33.86488 | -112.00856 | 7801 ft | 108 kts | 3° |
| 2026-05-03 22:07 | 33.87229 | -112.00773 | 7959 ft | 105 kts | 4° |
| 2026-05-03 22:07 | 33.87908 | -112.00690 | 8103 ft | 102 kts | 4° |
| 2026-05-03 22:07 | 33.88610 | -112.00610 | 8244 ft | 99 kts | 4° |
| 2026-05-03 22:07 | 33.89300 | -112.00525 | 8255 ft | 105 kts | 5° |
| 2026-05-03 22:08 | 33.90029 | -112.00442 | 8347 ft | 106 kts | 3° |
| 2026-05-03 22:08 | 33.90760 | -112.00403 | 8483 ft | 106 kts | 360° |
| 2026-05-03 22:08 | 33.91492 | -112.00378 | 8619 ft | 107 kts | 359° |
| 2026-05-03 22:08 | 33.92259 | -112.00367 | 8697 ft | 110 kts | 359° |
| 2026-05-03 22:09 | 33.93034 | -112.00370 | 8780 ft | 115 kts | 356° |
| 2026-05-03 22:09 | 33.93863 | -112.00390 | 8861 ft | 122 kts | 356° |
| 2026-05-03 22:09 | 33.94726 | -112.00422 | 8931 ft | 124 kts | 356° |
| 2026-05-03 22:10 | 33.96433 | -112.00505 | 9045 ft | 122 kts | 354° |
| 2026-05-03 22:10 | 33.97273 | -112.00557 | 9087 ft | 121 kts | 355° |
| 2026-05-03 22:10 | 33.98102 | -112.00613 | 9134 ft | 118 kts | 354° |
| 2026-05-03 22:10 | 33.98924 | -112.00676 | 9180 ft | 119 kts | 354° |
| 2026-05-03 22:11 | 33.99752 | -112.00748 | 9227 ft | 119 kts | 354° |
| 2026-05-03 22:11 | 34.00577 | -112.00829 | 9274 ft | 118 kts | 352° |
| 2026-05-03 22:11 | 34.01393 | -112.00917 | 9320 ft | 117 kts | 351° |
| 2026-05-03 22:11 | 34.02199 | -112.00866 | 9351 ft | 114 kts | 12° |
| 2026-05-03 22:12 | 34.02967 | -112.00690 | 9392 ft | 112 kts | 12° |
| 2026-05-03 22:12 | 34.03729 | -112.00522 | 9428 ft | 111 kts | 9° |
| 2026-05-03 22:12 | 34.04495 | -112.00463 | 9467 ft | 111 kts | 0° |
| 2026-05-03 22:12 | 34.05258 | -112.00415 | 9504 ft | 110 kts | 1° |
| 2026-05-03 22:13 | 34.06019 | -112.00374 | 9543 ft | 109 kts | 5° |
| 2026-05-03 22:13 | 34.06763 | -112.00347 | 9565 ft | 105 kts | 1° |
| 2026-05-03 22:13 | 34.07518 | -112.00294 | 9448 ft | 111 kts | 2° |
| 2026-05-03 22:13 | 34.08291 | -112.00235 | 9490 ft | 114 kts | 2° |
| 2026-05-03 22:14 | 34.09127 | -112.00212 | 9300 ft | 125 kts | 358° |
| 2026-05-03 22:14 | 34.09975 | -112.00333 | 9335 ft | 120 kts | 351° |
| 2026-05-03 22:14 | 34.10509 | -112.00375 | 9338 ft | 108 kts | 354° |
| 2026-05-03 22:14 | 34.11315 | -112.00446 | 9146 ft | 123 kts | 353° |
| 2026-05-03 22:15 | 34.12477 | -112.00511 | 9135 ft | 129 kts | 359° |
| 2026-05-03 22:15 | 34.13357 | -112.00583 | 9269 ft | 121 kts | 355° |
| 2026-05-03 22:15 | 34.14203 | -112.00627 | 9246 ft | 125 kts | 357° |
| 2026-05-03 22:15 | 34.14786 | -112.00642 | 9255 ft | 123 kts | 356° |
| 2026-05-03 22:16 | 34.15643 | -112.00636 | 9230 ft | 125 kts | 360° |
| 2026-05-03 22:16 | 34.16522 | -112.00641 | 9159 ft | 132 kts | 357° |
| 2026-05-03 22:16 | 34.17427 | -112.00739 | 9193 ft | 129 kts | 350° |
| 2026-05-03 22:16 | 34.18318 | -112.00850 | 9191 ft | 129 kts | 354° |
| 2026-05-03 22:17 | 34.19211 | -112.00950 | 9163 ft | 130 kts | 349° |
| 2026-05-03 22:17 | 34.20104 | -112.01137 | 9174 ft | 129 kts | 347° |
| 2026-05-03 22:17 | 34.20988 | -112.01275 | 9194 ft | 128 kts | 351° |
| 2026-05-03 22:17 | 34.21860 | -112.01325 | 9233 ft | 124 kts | 359° |
| 2026-05-03 22:18 | 34.22718 | -112.01329 | 9267 ft | 122 kts | 357° |
| 2026-05-03 22:18 | 34.23571 | -112.01351 | 9274 ft | 122 kts | 358° |
| 2026-05-03 22:18 | 34.24411 | -112.01344 | 9278 ft | 122 kts | 2° |
| 2026-05-03 22:18 | 34.25242 | -112.01273 | 9400 ft | 111 kts | 4° |
| 2026-05-03 22:19 | 34.25993 | -112.01193 | 9412 ft | 110 kts | 4° |
| 2026-05-03 22:19 | 34.26729 | -112.01120 | 9447 ft | 103 kts | 2° |
| 2026-05-03 22:19 | 34.27467 | -112.01066 | 9384 ft | 110 kts | 1° |
| 2026-05-03 22:19 | 34.28248 | -112.00993 | 9302 ft | 120 kts | 7° |
| 2026-05-03 22:20 | 34.29082 | -112.00936 | 9308 ft | 117 kts | 356° |
| 2026-05-03 22:20 | 34.29896 | -112.00960 | 9289 ft | 112 kts | 355° |
| 2026-05-03 22:20 | 34.30653 | -112.01009 | 9364 ft | 108 kts | 353° |
| 2026-05-03 22:20 | 34.31398 | -112.01114 | 9338 ft | 110 kts | 348° |
| 2026-05-03 22:21 | 34.32147 | -112.01254 | 9423 ft | 101 kts | 345° |
| 2026-05-03 22:21 | 34.32827 | -112.01401 | 9403 ft | 104 kts | 348° |
| 2026-05-03 22:21 | 34.33595 | -112.01405 | 9286 ft | 117 kts | 2° |
| 2026-05-03 22:21 | 34.34427 | -112.01331 | 9248 ft | 120 kts | 5° |
| 2026-05-03 22:22 | 34.35256 | -112.01224 | 9310 ft | 118 kts | 6° |
| 2026-05-03 22:22 | 34.36067 | -112.01105 | 9349 ft | 117 kts | 5° |
| 2026-05-03 22:22 | 34.36877 | -112.01033 | 9323 ft | 120 kts | 1° |
| 2026-05-03 22:22 | 34.37713 | -112.00969 | 9286 ft | 123 kts | 3° |
| 2026-05-03 22:23 | 34.38561 | -112.00880 | 9262 ft | 124 kts | 5° |
| 2026-05-03 22:23 | 34.39421 | -112.00872 | 9265 ft | 122 kts | 352° |
| 2026-05-03 22:23 | 34.40246 | -112.01018 | 9592 ft | 112 kts | 348° |
| 2026-05-03 22:23 | 34.40886 | -112.01213 | 9792 ft | 90 kts | 342° |
| 2026-05-03 22:24 | 34.41514 | -112.01369 | 9751 ft | 93 kts | 351° |
| 2026-05-03 22:24 | 34.42160 | -112.01439 | 9698 ft | 96 kts | 354° |
| 2026-05-03 22:24 | 34.42844 | -112.01481 | 9644 ft | 102 kts | 358° |
| 2026-05-03 22:24 | 34.43572 | -112.01498 | 9619 ft | 105 kts | 359° |
| 2026-05-03 22:25 | 34.44309 | -112.01497 | 9602 ft | 106 kts | 2° |
| 2026-05-03 22:25 | 34.45065 | -112.01460 | 9554 ft | 111 kts | 2° |
| 2026-05-03 22:25 | 34.45827 | -112.01426 | 9558 ft | 109 kts | 2° |
| 2026-05-03 22:25 | 34.46598 | -112.01396 | 9507 ft | 111 kts | 0° |
| 2026-05-03 22:26 | 34.47375 | -112.01401 | 9488 ft | 112 kts | 358° |
| 2026-05-03 22:26 | 34.48148 | -112.01439 | 9474 ft | 112 kts | 358° |
| 2026-05-03 22:26 | 34.48925 | -112.01510 | 9475 ft | 109 kts | 355° |
| 2026-05-03 22:26 | 34.49580 | -112.01600 | 9562 ft | 98 kts | 355° |
| 2026-05-03 22:27 | 34.50345 | -112.01620 | 9440 ft | 111 kts | 1° |
| 2026-05-03 22:27 | 34.51094 | -112.01593 | 9455 ft | 110 kts | 0° |
| 2026-05-03 22:27 | 34.51868 | -112.01592 | 9450 ft | 111 kts | 359° |
| 2026-05-03 22:27 | 34.52617 | -112.01636 | 9487 ft | 107 kts | 355° |
| 2026-05-03 22:28 | 34.53380 | -112.01716 | 9416 ft | 114 kts | 355° |
| 2026-05-03 22:28 | 34.54178 | -112.01810 | 9373 ft | 116 kts | 353° |
| 2026-05-03 22:28 | 34.54957 | -112.01926 | 9408 ft | 109 kts | 353° |
| 2026-05-03 22:28 | 34.55687 | -112.02018 | 9422 ft | 104 kts | 356° |
| 2026-05-03 22:29 | 34.56407 | -112.02022 | 9396 ft | 106 kts | 1° |
| 2026-05-03 22:29 | 34.57162 | -112.01976 | 9375 ft | 108 kts | 3° |
| 2026-05-03 22:29 | 34.57911 | -112.01909 | 9387 ft | 108 kts | 4° |
| 2026-05-03 22:29 | 34.58650 | -112.01905 | 9440 ft | 104 kts | 357° |
| 2026-05-03 22:30 | 34.59360 | -112.01946 | 9460 ft | 101 kts | 359° |
| 2026-05-03 22:30 | 34.60068 | -112.01941 | 9449 ft | 102 kts | 1° |
| 2026-05-03 22:30 | 34.60777 | -112.01932 | 9458 ft | 102 kts | 0° |
| 2026-05-03 22:30 | 34.61491 | -112.01903 | 9481 ft | 101 kts | 359° |
| 2026-05-03 22:31 | 34.62190 | -112.02037 | 9490 ft | 101 kts | 347° |
| 2026-05-03 22:31 | 34.62866 | -112.02176 | 9538 ft | 99 kts | 354° |
| 2026-05-03 22:31 | 34.63545 | -112.02199 | 9575 ft | 99 kts | 1° |
| 2026-05-03 22:31 | 34.64235 | -112.02177 | 9602 ft | 99 kts | 1° |
| 2026-05-03 22:32 | 34.64933 | -112.02177 | 9627 ft | 100 kts | 358° |
| 2026-05-03 22:32 | 34.65628 | -112.02219 | 9648 ft | 102 kts | 358° |
| 2026-05-03 22:32 | 34.66340 | -112.02193 | 9674 ft | 101 kts | 9° |
| 2026-05-03 22:32 | 34.67024 | -112.01912 | 9618 ft | 109 kts | 31° |
| 2026-05-03 22:33 | 34.67560 | -112.01247 | 9423 ft | 112 kts | 53° |
| 2026-05-03 22:33 | 34.68016 | -112.00467 | 9213 ft | 113 kts | 56° |
| 2026-05-03 22:33 | 34.68450 | -111.99664 | 9010 ft | 116 kts | 57° |
| 2026-05-03 22:33 | 34.68891 | -111.98812 | 8764 ft | 122 kts | 56° |
| 2026-05-03 22:34 | 34.69416 | -111.98028 | 8651 ft | 117 kts | 44° |
| 2026-05-03 22:34 | 34.69997 | -111.97348 | 8535 ft | 117 kts | 44° |
| 2026-05-03 22:34 | 34.70587 | -111.96659 | 8373 ft | 120 kts | 44° |
| 2026-05-03 22:34 | 34.71198 | -111.95959 | 8229 ft | 121 kts | 43° |
| 2026-05-03 22:35 | 34.71810 | -111.95257 | 8085 ft | 122 kts | 43° |
| 2026-05-03 22:35 | 34.72441 | -111.94548 | 7908 ft | 125 kts | 43° |
| 2026-05-03 22:35 | 34.73070 | -111.93814 | 7743 ft | 125 kts | 45° |
| 2026-05-03 22:35 | 34.73671 | -111.93055 | 7612 ft | 124 kts | 46° |
| 2026-05-03 22:36 | 34.74266 | -111.92295 | 7477 ft | 124 kts | 46° |
| 2026-05-03 22:36 | 34.74854 | -111.91530 | 7347 ft | 124 kts | 46° |
| 2026-05-03 22:36 | 34.75434 | -111.90761 | 7233 ft | 123 kts | 49° |
| 2026-05-03 22:36 | 34.75988 | -111.89995 | 7190 ft | 118 kts | 48° |
| 2026-05-03 22:37 | 34.76531 | -111.89220 | 7038 ft | 123 kts | 51° |
| 2026-05-03 22:37 | 34.77101 | -111.88429 | 6902 ft | 124 kts | 43° |
| 2026-05-03 22:37 | 34.77696 | -111.87728 | 6714 ft | 115 kts | 46° |
| 2026-05-03 22:37 | 34.78247 | -111.87045 | 6471 ft | 115 kts | 45° |
| 2026-05-03 22:38 | 34.78801 | -111.86354 | 6234 ft | 114 kts | 46° |
| 2026-05-03 22:38 | 34.79348 | -111.85669 | 6037 ft | 110 kts | 45° |
| 2026-05-03 22:38 | 34.79875 | -111.85027 | 5939 ft | 107 kts | 48° |
| 2026-05-03 22:38 | 34.80387 | -111.84397 | 5872 ft | 103 kts | 45° |
| 2026-05-03 22:39 | 34.80878 | -111.83784 | 5875 ft | 102 kts | 46° |
| 2026-05-03 22:39 | 34.81388 | -111.83172 | 5877 ft | 104 kts | 44° |
| 2026-05-03 22:39 | 34.81643 | -111.82382 | 5894 ft | 103 kts | 86° |
| 2026-05-03 22:39 | 34.81699 | -111.81497 | 5880 ft | 107 kts | 82° |
| 2026-05-03 22:40 | 34.81863 | -111.80603 | 5856 ft | 110 kts | 76° |
| 2026-05-03 22:40 | 34.82055 | -111.79696 | 5827 ft | 111 kts | 71° |
| 2026-05-03 22:40 | 34.82506 | -111.78935 | 5776 ft | 113 kts | 46° |
| 2026-05-03 22:40 | 34.83003 | -111.78190 | 5724 ft | 115 kts | 52° |
| 2026-05-03 22:41 | 34.83477 | -111.77416 | 5696 ft | 113 kts | 54° |
| 2026-05-03 22:41 | 34.83902 | -111.76665 | 5800 ft | 103 kts | 55° |
| 2026-05-03 22:41 | 34.84370 | -111.76044 | 5863 ft | 100 kts | 34° |
| 2026-05-03 22:41 | 34.85039 | -111.75801 | 5847 ft | 105 kts | 0° |
| 2026-05-03 22:42 | 34.85771 | -111.75960 | 5824 ft | 108 kts | 343° |
| 2026-05-03 22:42 | 34.86458 | -111.76335 | 5765 ft | 111 kts | 319° |
| 2026-05-03 22:42 | 34.86748 | -111.77137 | 5577 ft | 103 kts | 264° |
| 2026-05-03 22:42 | 34.86343 | -111.77745 | 5360 ft | 98 kts | 198° |
| 2026-05-03 22:43 | 34.85722 | -111.77880 | 5070 ft | 84 kts | 197° |
| 2026-05-03 22:43 | 34.85279 | -111.78309 | 4858 ft | 79 kts | 225° |
| 2026-05-03 22:43 | 34.84936 | -111.78739 | 4790 ft | 61 kts | 227° |
| 2026-05-03 22:43 | 34.84713 | -111.79024 | 4770 ft | 36 kts | 225° |
| 2026-05-03 22:44 | 34.84650 | -111.79099 | 4770 ft | 9 kts | 223° |
| 2026-05-03 22:44 | 34.84625 | -111.79143 | 4767 ft | 5 kts | 271° |
| 2026-05-03 22:44 | 34.84662 | -111.79198 | 4768 ft | 8 kts | 10° |
| 2026-05-03 22:44 | 34.84708 | -111.79152 | 4769 ft | 14 kts | 45° |
| 2026-05-03 22:45 | 34.84791 | -111.79050 | 4773 ft | 11 kts | 43° |
| 2026-05-03 22:45 | 34.84827 | -111.79021 | 4776 ft | 6 kts | 345° |
| 2026-05-03 22:45 | 34.84882 | -111.78999 | 4781 ft | 7 kts | 36° |
| 2026-05-03 22:45 | 34.84899 | -111.78990 | 4783 ft | 4 kts | 342° |
| 2026-05-03 22:46 | 34.84906 | -111.78997 | 4783 ft | 0 kts | 315° |